Bagdad, Kentucky
Current Conditions -  °F | °C
As of 2:53 AM on Thursday 18 Dec 2014 (Local Time) from KFFT Reporting Station
Overcast Overcast  
Wind Chill: 24°   Ceiling: 1700
Heat Index: 29°   Visibility: 10mi
Dew Point: 21°   Wind: 5mph
Humidity: 72%   Direction: 360°N
Pressure: 30.26"   Gusts: NA
Location:  38.26°N, 85.06°W
Report Text: KFFT 180753Z AUTO 36004KT 10SM OVC017 M02/M06 A3026 RMK AO2 SLP255 T10171061
Loading
Personal Weather Stations






























Interactive Weather Map New forecast layout! Learn more

10-Day Weather Forecast

Advertisements
Track Severe Weather on mobile